HXE weather

Mexipuerto Ecatepec Heliport
Ecatepec, Mexico, Mexico

Public forecast

Using degrees Celsius for public forecast. Weather courtesy of forecast.io.

METAR (pilot weather report)

Closest report is Licenciado Benito Juarez International Airport, 6.4 nm (11.9 km) SSW. Retrieved 2019/08/22 08:41 UTC (0 seconds ago):

MMMX 220841Z 21004KT 10SM SCT090 SCT200 15/11 A3032 NOSIG RMK SLP100 57006 917 8/032 HZY

TAF (pilot weather forecast)

Closest forecast is Licenciado Benito Juarez International Airport, 6.4 nm (11.9 km) SSW. Retrieved 2019/08/22 06:06 UTC (2 hours ago):

TAF MMMX 220503Z 2206/2312 13005KT P6SM SCT020 SCT250 TX23/2221Z TN14/2212Z FM221800 03014KT P6SM BKN020CB BKN080 OVC250 FM222200 34014KT 5SM -RA BKN020CB OVC080 TEMPO 2223/2303 3SM TSRA OVC020CB FM230700 34005KT P6SM SCT020 BKN080